Time;durP1;ratioP1;P1;durP2;ratioP2;P2;SDS_P1;SDS_P2;PMS_P1;PMS_P2;Temp;Humidity;BMP_temperature;BMP_pressure;BME280_temperature;BME280_humidity;BME280_pressure;Samples;Min_cycle;Max_cycle;Signal;HPM_P1;HPM_P2
2022/12/27 00:00:49;;;;;;;16.70;10.60;;;;;;;5.30;89.94;95626.41;6275803;22;20397;-83
2022/12/27 00:03:16;;;;;;;12.60;8.90;;;;;;;5.36;89.96;95626.06;6275889;22;20499;-82
2022/12/27 00:05:45;;;;;;;15.17;9.43;;;;;;;5.25;90.38;95629.25;6275824;22;20401;-82
2022/12/27 00:08:12;;;;;;;17.47;11.77;;;;;;;5.23;90.25;95636.28;6275722;22;20921;-82
2022/12/27 00:10:39;;;;;;;12.43;10.50;;;;;;;5.08;90.91;95642.25;6275889;22;20392;-83
2022/12/27 00:13:06;;;;;;;14.50;9.90;;;;;;;5.01;91.70;95638.31;6275712;22;20724;-82
2022/12/27 00:15:33;;;;;;;20.13;14.30;;;;;;;4.95;92.67;95643.81;6276137;22;20397;-82
2022/12/27 00:18:00;;;;;;;26.80;15.73;;;;;;;4.98;91.58;95636.69;6275668;22;20496;-82
2022/12/27 00:20:27;;;;;;;39.43;23.50;;;;;;;4.88;91.92;95645.03;6275902;22;20404;-82
2022/12/27 00:22:55;;;;;;;31.33;19.57;;;;;;;4.83;91.19;95642.66;6275561;22;20824;-82
2022/12/27 00:25:21;;;;;;;33.53;16.83;;;;;;;4.23;91.85;95639.56;6275968;22;20400;-83
2022/12/27 00:27:48;;;;;;;34.47;17.20;;;;;;;4.37;91.29;95638.06;6276132;22;20698;-82
2022/12/27 00:30:15;;;;;;;29.53;17.00;;;;;;;4.39;91.89;95638.84;6275838;22;20724;-82
2022/12/27 00:32:42;;;;;;;30.10;18.17;;;;;;;4.41;90.92;95632.66;6275620;22;20801;-82
2022/12/27 00:35:09;;;;;;;26.03;16.00;;;;;;;4.41;91.13;95629.22;6275961;22;20418;-83
2022/12/27 00:37:36;;;;;;;23.00;17.17;;;;;;;4.44;91.93;95631.66;6221977;22;20879;-83
2022/12/27 00:40:04;;;;;;;26.97;17.60;;;;;;;4.50;94.67;95636.53;6275815;22;20405;-83
2022/12/27 00:42:31;;;;;;;30.07;18.37;;;;;;;4.55;94.40;95632.78;6275769;22;20404;-82
2022/12/27 00:44:58;;;;;;;32.33;21.67;;;;;;;4.55;93.76;95639.75;6276038;22;20518;-82
2022/12/27 00:47:25;;;;;;;34.00;19.77;;;;;;;4.58;92.91;95640.44;6275575;22;20409;-82
2022/12/27 00:49:51;;;;;;;27.97;21.13;;;;;;;4.61;93.20;95662.84;6275353;22;20530;-83
2022/12/27 00:52:18;;;;;;;30.97;19.70;;;;;;;4.50;92.07;95647.78;6275721;22;20455;-83
2022/12/27 00:54:45;;;;;;;30.53;19.67;;;;;;;4.49;92.56;95663.44;6275930;22;20405;-83
2022/12/27 00:57:13;;;;;;;36.60;21.20;;;;;;;4.45;93.56;95660.16;6275848;22;20400;-82
2022/12/27 00:59:40;;;;;;;29.03;20.53;;;;;;;4.52;93.92;95665.91;6276335;22;20389;-83
2022/12/27 01:02:06;;;;;;;27.10;19.23;;;;;;;4.58;93.36;95668.19;6275353;22;20766;-83
2022/12/27 01:04:33;;;;;;;27.93;19.13;;;;;;;4.58;92.52;95661.22;6275589;22;20518;-83
2022/12/27 01:07:00;;;;;;;34.93;18.43;;;;;;;4.60;92.22;95662.00;6277720;22;20451;-81
2022/12/27 01:09:27;;;;;;;33.03;19.50;;;;;;;4.59;91.85;95662.06;6277972;22;20400;-82
2022/12/27 01:11:54;;;;;;;26.87;18.50;;;;;;;4.60;91.45;95659.41;6277885;22;20405;-82
2022/12/27 01:14:22;;;;;;;27.57;18.63;;;;;;;4.58;89.85;95666.44;6277825;22;20474;-82
2022/12/27 01:16:48;;;;;;;28.77;18.53;;;;;;;4.53;89.89;95665.81;6277689;22;20412;-83
2022/12/27 01:19:15;;;;;;;23.47;16.67;;;;;;;4.50;89.91;95667.72;6277831;22;20401;-83
2022/12/27 01:21:42;;;;;;;27.90;16.00;;;;;;;4.49;90.17;95673.84;6198919;22;20888;-82
2022/12/27 01:24:09;;;;;;;21.33;14.97;;;;;;;4.49;90.39;95666.03;6277265;22;20439;-83
2022/12/27 01:26:35;;;;;;;23.40;14.80;;;;;;;4.49;90.10;95658.25;6199445;22;20408;-82
2022/12/27 01:29:02;;;;;;;25.50;15.30;;;;;;;4.47;90.50;95653.13;6277654;22;20470;-82
2022/12/27 01:31:30;;;;;;;21.23;12.83;;;;;;;4.48;89.83;95657.41;6277644;22;20626;-83
2022/12/27 01:33:59;;;;;;;15.50;12.23;;;;;;;4.49;90.18;95647.84;6198705;22;20396;-82
2022/12/27 01:36:27;;;;;;;14.67;11.57;;;;;;;4.49;90.69;95642.66;6277785;22;20405;-82
2022/12/27 01:38:54;;;;;;;21.40;12.50;;;;;;;4.51;91.38;95638.22;6277436;22;20883;-82
2022/12/27 01:44:48;;;;;;;19.07;10.90;;;;;;;4.53;91.05;95629.44;6277490;22;20471;-82
2022/12/27 01:47:21;;;;;;;17.10;10.90;;;;;;;4.53;91.56;95631.19;6277201;22;20400;-83
2022/12/27 01:50:01;;;;;;;13.60;10.83;;;;;;;4.53;92.29;95632.03;6277124;22;20982;-83
2022/12/27 01:52:31;;;;;;;16.33;10.37;;;;;;;4.56;91.93;95625.84;6277864;22;20389;-80
2022/12/27 01:55:07;;;;;;;18.00;10.30;;;;;;;4.59;92.37;95625.69;6277059;22;20458;-81
2022/12/27 01:57:34;;;;;;;18.37;11.70;;;;;;;4.61;93.04;95621.25;6277137;22;20458;-80
2022/12/27 02:00:01;;;;;;;17.10;12.13;;;;;;;4.66;93.05;95627.09;6277754;22;20404;-81
2022/12/27 02:02:29;;;;;;;16.73;10.07;;;;;;;4.67;92.51;95633.97;6277277;22;20408;-81
2022/12/27 02:04:56;;;;;;;14.33;10.17;;;;;;;4.71;93.04;95632.88;6277063;22;20490;-81
2022/12/27 02:07:31;;;;;;;13.20;9.83;;;;;;;4.71;92.57;95627.69;6277539;22;20446;-81
2022/12/27 02:10:00;;;;;;;15.43;10.87;;;;;;;4.79;93.12;95632.50;6277150;22;20400;-81
2022/12/27 02:12:27;;;;;;;13.40;9.40;;;;;;;4.77;92.50;95634.34;6277483;22;20409;-82
2022/12/27 02:14:54;;;;;;;13.50;8.70;;;;;;;4.80;91.82;95628.97;6276798;22;20899;-82
2022/12/27 02:17:23;;;;;;;13.60;9.10;;;;;;;4.79;92.90;95622.09;6276783;22;20699;-81
2022/12/27 02:20:00;;;;;;;16.27;11.50;;;;;;;4.73;92.60;95618.06;6277105;22;20796;-82
2022/12/27 02:26:06;;;;;;;18.17;12.20;;;;;;;4.67;92.58;95620.97;6276924;22;20391;-82
2022/12/27 02:28:56;;;;;;;13.60;10.33;;;;;;;4.68;92.07;95629.59;6277206;22;20419;-82
2022/12/27 02:31:31;;;;;;;14.07;9.40;;;;;;;4.70;91.42;95639.00;6277491;22;20404;-82
2022/12/27 02:34:00;;;;;;;15.27;10.93;;;;;;;4.69;90.91;95634.72;6277171;22;20450;-82
2022/12/27 02:36:31;;;;;;;12.97;9.80;;;;;;;4.72;92.05;95631.13;6276936;22;20944;-81
2022/12/27 02:39:01;;;;;;;10.63;9.33;;;;;;;4.76;92.67;95632.66;6223501;22;20454;-82
2022/12/27 02:53:06;;;;;;;15.27;10.10;;;;;;;4.67;92.38;95628.75;6153288;23;20790;-82
2022/12/27 02:58:48;;;;;;;11.93;9.20;;;;;;;4.70;92.09;95625.16;6065387;23;20393;-82
2022/12/27 03:04:23;;;;;;;16.20;10.00;;;;;;;4.61;93.95;95629.88;6065598;23;20453;-82
2022/12/27 03:07:07;;;;;;;10.63;8.53;;;;;;;4.66;94.68;95632.28;6065179;23;20410;-82
2022/12/27 03:15:55;;;;;;;14.70;8.73;;;;;;;4.69;94.00;95637.31;6128811;23;20490;-82
2022/12/27 03:18:34;;;;;;;10.90;8.33;;;;;;;4.71;94.09;95629.44;6182764;23;20407;-82
2022/12/27 03:26:39;;;;;;;13.43;8.57;;;;;;;4.76;92.84;95637.84;6182677;23;20410;-81
2022/12/27 03:34:47;;;;;;;12.63;8.63;;;;;;;4.65;94.13;95636.66;6188224;22;20458;-82
2022/12/27 03:40:10;;;;;;;12.90;9.57;;;;;;;4.65;93.27;95647.03;6276185;22;20466;-82
2022/12/27 03:48:17;;;;;;;14.50;10.57;;;;;;;4.34;91.48;95652.91;6274948;22;20476;-82
2022/12/27 03:50:51;;;;;;;17.57;11.17;;;;;;;4.33;92.26;95639.94;6275864;22;20490;-82
2022/12/27 03:53:24;;;;;;;14.30;10.50;;;;;;;4.33;93.30;95645.97;6197872;22;20718;-82
2022/12/27 03:55:51;;;;;;;13.63;10.50;;;;;;;4.35;91.65;95633.78;6275911;22;20492;-82
2022/12/27 03:58:17;;;;;;;11.63;8.50;;;;;;;4.32;92.33;95639.09;6276225;22;20459;-82
2022/12/27 04:00:44;;;;;;;11.33;9.03;;;;;;;4.33;91.73;95639.94;6276007;22;20404;-82
2022/12/27 04:03:11;;;;;;;11.10;8.30;;;;;;;4.34;92.35;95636.47;6276232;22;20404;-82
2022/12/27 04:05:38;;;;;;;11.07;8.43;;;;;;;4.38;92.79;95638.00;6276105;22;20440;-83
2022/12/27 04:35:28;;;;;;;11.57;9.17;;;;;;;4.62;94.85;95651.53;6275623;22;20392;-82
2022/12/27 04:37:54;;;;;;;14.07;11.90;;;;;;;4.41;93.06;95673.38;6197374;22;20724;-81
2022/12/27 04:57:00;;;;;;;31.30;23.10;;;;;;;3.90;90.83;95693.94;6275677;22;20464;-83
2022/12/27 05:02:11;;;;;;;36.23;20.13;;;;;;;3.81;92.52;95698.72;6209334;22;20438;-83
2022/12/27 05:04:39;;;;;;;26.47;19.67;;;;;;;3.74;92.29;95701.56;6275606;22;20447;-82
2022/12/27 05:15:23;;;;;;;30.30;20.00;;;;;;;3.84;91.17;95675.19;6275523;22;20498;-82
2022/12/27 05:17:50;;;;;;;27.80;18.93;;;;;;;3.77;91.31;95671.22;6275862;22;20408;-83
2022/12/27 05:20:17;;;;;;;27.17;17.60;;;;;;;3.74;91.58;95665.22;6275524;22;20431;-83
2022/12/27 05:25:37;;;;;;;18.30;11.73;;;;;;;3.75;94.03;95658.28;6230002;22;20486;-82
2022/12/27 05:28:08;;;;;;;15.67;10.80;;;;;;;3.83;95.41;95650.16;6275182;22;20440;-82
2022/12/27 05:30:35;;;;;;;9.30;7.90;;;;;;;3.83;96.85;95635.41;6275294;22;20721;-82
2022/12/27 05:33:02;;;;;;;14.20;8.80;;;;;;;3.88;98.49;95638.63;6275850;22;20442;-83
2022/12/27 05:35:29;;;;;;;14.83;9.60;;;;;;;3.92;99.45;95626.34;6275450;22;20404;-82
2022/12/27 05:37:56;;;;;;;16.93;8.90;;;;;;;3.97;99.64;95629.56;6275678;22;20462;-82
2022/12/27 05:40:24;;;;;;;12.40;8.77;;;;;;;3.99;100.00;95618.19;6275584;22;20462;-83
2022/12/27 05:42:51;;;;;;;11.33;7.70;;;;;;;4.13;100.00;95625.34;6275519;22;20909;-82
2022/12/27 05:45:20;;;;;;;14.13;8.30;;;;;;;4.18;100.00;95631.16;6275549;22;20518;-82
2022/12/27 05:47:47;;;;;;;13.20;9.00;;;;;;;4.19;100.00;95622.44;6275266;22;20404;-82
2022/12/27 05:50:13;;;;;;;11.00;8.30;;;;;;;4.33;100.00;95629.56;6275780;22;20424;-82
2022/12/27 05:52:40;;;;;;;31.67;19.93;;;;;;;4.00;97.29;95642.41;6275715;22;20957;-82
2022/12/27 05:55:07;;;;;;;32.97;22.00;;;;;;;3.51;94.11;95659.41;6277643;22;20867;-84
2022/12/27 05:57:34;;;;;;;30.70;22.43;;;;;;;3.35;93.70;95664.41;6223755;22;20451;-84
2022/12/27 06:00:01;;;;;;;33.97;21.23;;;;;;;2.98;94.59;95671.22;6277062;22;20405;-84
2022/12/27 06:02:29;;;;;;;49.67;30.00;;;;;;;2.77;96.28;95674.69;6276956;22;20462;-85
2022/12/27 06:04:56;;;;;;;50.23;32.47;;;;;;;2.68;96.82;95675.94;6277582;22;20478;-84
2022/12/27 06:07:23;;;;;;;38.40;26.30;;;;;;;2.66;97.61;95692.44;6277227;22;20470;-84
2022/12/27 06:09:49;;;;;;;40.83;26.33;;;;;;;2.59;98.85;95693.59;6277517;22;20458;-84
2022/12/27 06:12:16;;;;;;;36.70;26.23;;;;;;;2.02;100.00;95687.22;6277393;22;20407;-85
2022/12/27 06:14:43;;;;;;;45.00;27.27;;;;;;;2.28;100.00;95694.81;6277282;22;20407;-84
2022/12/27 06:17:12;;;;;;;44.53;25.67;;;;;;;2.38;100.00;95705.66;6276960;22;20415;-84
2022/12/27 06:19:40;;;;;;;35.53;24.60;;;;;;;2.45;100.00;95710.53;6277450;22;20400;-85
2022/12/27 06:22:07;;;;;;;44.93;27.77;;;;;;;2.43;100.00;95714.09;6277057;22;20400;-85
2022/12/27 06:24:34;;;;;;;59.90;38.37;;;;;;;2.41;100.00;95719.34;6223837;22;20517;-85
2022/12/27 06:27:01;;;;;;;89.93;43.97;;;;;;;2.40;100.00;95694.34;6277332;22;20708;-85
2022/12/27 06:29:27;;;;;;;73.07;39.67;;;;;;;2.36;100.00;95717.84;6276720;22;20396;-84
2022/12/27 06:31:54;;;;;;;63.00;36.85;;;;;;;2.37;100.00;95678.94;6276636;22;20401;-84
2022/12/27 06:34:21;;;;;;;54.50;35.07;;;;;;;2.42;100.00;95710.66;6277165;22;20223;-84
2022/12/27 06:36:50;;;;;;;73.03;36.67;;;;;;;2.53;100.00;95696.44;6277004;22;20464;-83
2022/12/27 06:39:17;;;;;;;71.03;40.50;;;;;;;2.65;100.00;95708.91;6276526;22;20408;-84
2022/12/27 06:41:44;;;;;;;72.77;41.77;;;;;;;2.79;100.00;95696.22;6276818;22;20399;-83
2022/12/27 06:44:11;;;;;;;70.13;39.60;;;;;;;2.97;100.00;95705.81;6276874;22;20409;-83
2022/12/27 06:46:38;;;;;;;69.03;38.73;;;;;;;3.15;100.00;95709.38;6277128;22;20464;-83
2022/12/27 06:49:05;;;;;;;61.37;35.20;;;;;;;3.33;100.00;95702.56;6276807;22;20781;-83
2022/12/27 06:51:33;;;;;;;66.23;34.50;;;;;;;3.55;100.00;95700.72;6277115;22;20954;-83
2022/12/27 06:54:01;;;;;;;44.03;27.87;;;;;;;3.72;100.00;95699.94;6276884;22;20401;-83
2022/12/27 06:56:27;;;;;;;49.60;29.27;;;;;;;3.89;99.47;95692.25;6199006;22;20401;-83
2022/12/27 06:58:54;;;;;;;42.53;28.80;;;;;;;4.02;98.82;95697.69;6276867;22;20400;-82
2022/12/27 07:01:23;;;;;;;41.70;24.80;;;;;;;4.17;98.36;95685.78;6223091;22;20397;-83
2022/12/27 07:03:51;;;;;;;34.27;21.70;;;;;;;4.29;97.40;95680.81;6276475;22;20910;-83
2022/12/27 07:06:18;;;;;;;34.50;22.60;;;;;;;4.48;96.81;95687.75;6276239;22;20496;-82
2022/12/27 07:08:45;;;;;;;37.10;25.67;;;;;;;4.57;96.36;95684.69;6276912;22;20408;-83
2022/12/27 07:11:14;;;;;;;35.70;26.50;;;;;;;4.58;96.77;95671.63;6276646;22;20436;-83
2022/12/27 07:13:44;;;;;;;41.03;26.00;;;;;;;4.61;97.07;95681.88;6276723;22;20404;-83
2022/12/27 07:16:12;;;;;;;78.40;39.27;;;;;;;4.56;97.30;95672.63;6276606;22;20400;-83
2022/12/27 07:18:40;;;;;;;77.60;42.30;;;;;;;4.71;97.94;95677.09;6276659;22;20462;-83
2022/12/27 07:21:08;;;;;;;76.83;37.33;;;;;;;4.74;97.72;95682.13;6276208;22;20462;-82
2022/12/27 07:23:35;;;;;;;54.07;31.80;;;;;;;4.78;98.84;95683.66;6276745;22;20396;-83
2022/12/27 07:26:03;;;;;;;77.43;45.90;;;;;;;4.78;98.97;95673.25;6275892;22;20448;-82
2022/12/27 07:28:32;;;;;;;85.87;54.27;;;;;;;4.73;97.87;95670.06;6276383;22;20479;-82
2022/12/27 07:30:59;;;;;;;73.33;42.53;;;;;;;4.59;97.88;95659.47;6276100;22;20396;-83
2022/12/27 07:33:25;;;;;;;54.50;33.13;;;;;;;4.48;98.17;95664.38;6276147;22;20474;-82
2022/12/27 07:35:59;;;;;;;47.23;31.73;;;;;;;4.58;97.98;95675.97;6276015;22;20470;-82
2022/12/27 07:38:25;;;;;;;48.50;31.03;;;;;;;4.71;98.01;95679.69;6275927;22;20496;-82
2022/12/27 07:40:52;;;;;;;50.27;28.90;;;;;;;4.77;97.91;95675.94;6275926;22;20404;-82
2022/12/27 07:43:20;;;;;;;48.83;30.10;;;;;;;4.92;97.92;95678.63;6276623;22;20408;-82
2022/12/27 07:45:48;;;;;;;43.67;30.80;;;;;;;5.07;98.02;95674.41;6275978;22;20939;-82
2022/12/27 07:48:15;;;;;;;45.63;28.90;;;;;;;5.15;97.39;95668.78;6277247;22;20407;-82
2022/12/27 07:50:41;;;;;;;48.10;31.00;;;;;;;5.08;97.87;95675.25;6198161;22;20951;-82
2022/12/27 07:53:08;;;;;;;42.93;27.67;;;;;;;5.15;97.49;95668.78;6276911;22;20400;-82
2022/12/27 07:55:35;;;;;;;39.83;25.00;;;;;;;5.25;97.82;95672.63;6276328;22;20938;-82
2022/12/27 07:58:02;;;;;;;27.63;20.10;;;;;;;5.20;97.15;95669.41;6276793;22;20401;-82
2022/12/27 08:00:29;;;;;;;29.83;18.73;;;;;;;5.28;97.75;95677.66;6277075;22;20459;-82
2022/12/27 08:02:57;;;;;;;25.67;17.47;;;;;;;5.25;97.11;95672.63;6276762;22;20867;-82
2022/12/27 08:05:23;;;;;;;22.93;15.73;;;;;;;5.28;97.20;95681.13;6276123;22;21029;-82
2022/12/27 08:07:50;;;;;;;25.30;16.80;;;;;;;5.35;96.36;95684.25;6276205;22;20404;-81
2022/12/27 08:10:17;;;;;;;27.83;19.40;;;;;;;5.25;97.49;95683.03;6276464;22;20436;-82
2022/12/27 08:12:44;;;;;;;29.23;19.57;;;;;;;5.34;97.58;95686.91;6198207;22;20442;-83
2022/12/27 08:15:11;;;;;;;38.53;23.70;;;;;;;5.50;97.15;95693.88;6275860;22;20458;-83
2022/12/27 08:17:38;;;;;;;42.30;30.03;;;;;;;5.56;97.06;95698.75;6276774;22;20398;-82
2022/12/27 08:20:10;;;;;;;63.60;36.00;;;;;;;5.68;96.64;95691.19;6277502;22;20401;-83
2022/12/27 08:22:37;;;;;;;55.53;34.50;;;;;;;5.77;96.46;95706.34;6277942;22;20408;-83
2022/12/27 08:25:04;;;;;;;47.10;33.03;;;;;;;5.79;95.74;95696.69;6276086;22;20444;-83
2022/12/27 08:27:31;;;;;;;50.57;32.77;;;;;;;5.86;95.51;95698.06;6275962;22;20409;-82
2022/12/27 08:29:57;;;;;;;63.23;39.00;;;;;;;5.98;96.06;95694.81;6275927;22;20400;-82
2022/12/27 08:32:24;;;;;;;55.63;37.90;;;;;;;6.11;95.61;95698.44;6275910;22;20404;-82
2022/12/27 08:34:52;;;;;;;53.07;36.53;;;;;;;6.24;94.75;95697.75;6276194;22;20404;-83
2022/12/27 08:37:20;;;;;;;53.20;36.57;;;;;;;6.36;94.41;95702.28;6276418;22;20398;-83
2022/12/27 08:39:46;;;;;;;51.27;34.90;;;;;;;6.36;92.97;95702.28;6197978;22;20505;-82
2022/12/27 08:42:13;;;;;;;54.43;33.90;;;;;;;6.41;92.89;95695.09;6223057;22;20412;-82
2022/12/27 08:44:56;;;;;;;47.87;33.47;;;;;;;6.52;92.74;95690.94;5090091;27;20953;-80
2022/12/27 08:47:23;;;;;;;47.60;32.17;;;;;;;6.65;92.83;95687.63;5090251;28;20445;-80
2022/12/27 08:49:49;;;;;;;51.80;32.33;;;;;;;6.74;93.07;95674.09;5071850;28;20448;-80
2022/12/27 08:52:16;;;;;;;41.50;29.53;;;;;;;6.83;92.60;95679.59;5090517;28;20507;-80
2022/12/27 08:54:43;;;;;;;39.77;27.73;;;;;;;6.89;91.88;95670.59;5090347;28;20458;-80
2022/12/27 08:57:10;;;;;;;42.27;26.17;;;;;;;7.03;92.37;95669.78;5090421;28;20438;-79
2022/12/27 08:59:36;;;;;;;42.23;26.93;;;;;;;7.15;91.58;95674.28;5090485;28;20441;-81
2022/12/27 09:02:04;;;;;;;41.07;27.73;;;;;;;7.25;91.24;95661.56;5090216;28;20446;-81
2022/12/27 09:04:31;;;;;;;38.37;29.27;;;;;;;7.34;90.93;95669.66;5090407;28;20478;-81
2022/12/27 09:06:58;;;;;;;39.90;28.07;;;;;;;7.43;90.94;95653.44;5089675;28;21001;-81
2022/12/27 09:09:25;;;;;;;41.63;25.83;;;;;;;7.56;90.26;95650.94;5090039;28;20442;-82
2022/12/27 09:11:51;;;;;;;36.93;24.17;;;;;;;7.66;90.16;95649.44;5071631;28;20454;-81
2022/12/27 09:14:19;;;;;;;39.33;23.37;;;;;;;7.82;89.97;95649.34;5090012;28;20442;-81
2022/12/27 09:16:46;;;;;;;31.40;20.73;;;;;;;7.95;88.91;95644.19;5089985;28;20455;-82
2022/12/27 09:19:14;;;;;;;24.13;20.40;;;;;;;8.10;88.52;95645.03;5089092;28;20443;-81
2022/12/27 09:21:44;;;;;;;28.37;18.27;;;;;;;8.24;87.75;95644.97;5089365;28;21149;-82
2022/12/27 09:24:12;;;;;;;27.73;16.70;;;;;;;8.37;87.34;95640.66;5089641;28;20487;-81
2022/12/27 09:26:39;;;;;;;30.27;17.50;;;;;;;8.49;86.99;95623.34;5089547;28;20817;-81
2022/12/27 09:29:06;;;;;;;35.93;22.00;;;;;;;8.58;85.89;95622.75;5088919;28;20448;-82
2022/12/27 09:31:33;;;;;;;31.27;19.40;;;;;;;8.72;85.59;95624.47;5089404;28;20520;-81
2022/12/27 09:34:00;;;;;;;29.40;20.20;;;;;;;8.86;84.77;95629.63;5089026;28;20938;-81
2022/12/27 09:36:29;;;;;;;34.93;16.60;;;;;;;8.81;83.25;95623.88;5089105;28;20444;-81
2022/12/27 09:38:57;;;;;;;29.33;19.90;;;;;;;8.92;83.44;95616.97;5089144;28;20773;-82
2022/12/27 09:41:43;;;;;;;32.57;22.90;;;;;;;9.03;83.27;95613.66;5089286;28;20448;-81
2022/12/27 09:44:15;;;;;;;35.97;24.17;;;;;;;9.17;82.48;95625.78;5088286;28;20495;-81
2022/12/27 09:46:46;;;;;;;40.40;24.27;;;;;;;9.21;81.97;95622.88;5089015;28;20444;-81
2022/12/27 09:49:17;;;;;;;53.40;32.13;;;;;;;9.33;82.03;95613.34;5088746;28;20868;-82
2022/12/27 09:51:49;;;;;;;31.13;23.60;;;;;;;9.41;80.91;95618.06;5088661;28;20850;-81
2022/12/27 09:54:21;;;;;;;25.30;18.30;;;;;;;9.43;80.46;95609.16;5086489;28;20448;-82
2022/12/27 09:56:48;;;;;;;25.90;18.40;;;;;;;9.55;80.46;95612.72;5074946;28;20984;-82
2022/12/27 09:59:23;;;;;;;30.83;21.00;;;;;;;9.61;79.31;95614.91;5074888;28;20450;-82
2022/12/27 10:01:49;;;;;;;29.70;21.23;;;;;;;9.57;80.64;95616.06;5075373;28;20585;-81
2022/12/27 10:04:18;;;;;;;33.67;21.33;;;;;;;9.63;80.56;95618.25;5075244;28;20477;-82
2022/12/27 10:07:05;;;;;;;36.07;21.43;;;;;;;9.77;80.72;95609.44;5074828;28;20445;-82
2022/12/27 10:09:47;;;;;;;27.90;17.40;;;;;;;9.88;79.50;95615.59;5075053;28;20442;-82
2022/12/27 10:12:27;;;;;;;28.43;20.90;;;;;;;9.99;80.11;95603.50;5039680;28;20449;-82
2022/12/27 10:15:07;;;;;;;28.77;20.27;;;;;;;9.94;79.54;95591.56;5075076;28;20848;-82
2022/12/27 10:17:49;;;;;;;24.10;18.70;;;;;;;9.85;79.65;95587.00;5074591;28;20966;-81
2022/12/27 10:20:26;;;;;;;28.53;18.83;;;;;;;10.04;79.59;95585.66;5074727;28;20851;-82
2022/12/27 10:22:58;;;;;;;28.43;18.10;;;;;;;10.18;79.99;95564.53;5074524;28;20445;-81
2022/12/27 10:25:27;;;;;;;27.10;19.50;;;;;;;10.26;78.85;95556.97;5074832;28;20446;-81
2022/12/27 10:27:58;;;;;;;26.60;18.73;;;;;;;10.37;79.72;95562.28;5074671;28;20442;-81
2022/12/27 10:30:30;;;;;;;24.10;15.83;;;;;;;10.45;77.76;95567.81;5075427;28;20439;-81
2022/12/27 10:32:56;;;;;;;25.20;15.03;;;;;;;10.42;77.07;95565.41;5040676;28;20956;-81
2022/12/27 10:35:25;;;;;;;17.33;13.40;;;;;;;10.57;76.41;95573.09;5075749;28;20442;-81
2022/12/27 10:37:52;;;;;;;21.67;14.70;;;;;;;10.71;76.91;95565.06;5074702;28;20445;-81
2022/12/27 10:40:24;;;;;;;24.33;17.00;;;;;;;10.82;77.25;95567.69;5074219;28;20453;-82
2022/12/27 10:43:02;;;;;;;26.20;16.80;;;;;;;10.80;75.93;95565.19;5074144;28;20556;-81
2022/12/27 10:45:33;;;;;;;26.47;17.57;;;;;;;10.88;75.20;95564.63;5074075;28;20450;-82
2022/12/27 10:48:13;;;;;;;19.80;13.80;;;;;;;10.98;74.16;95575.25;5074220;28;20447;-82
2022/12/27 10:50:46;;;;;;;18.93;13.20;;;;;;;11.01;74.42;95573.25;5055874;28;20869;-82
2022/12/27 10:53:33;;;;;;;20.83;14.37;;;;;;;11.05;74.61;95564.19;5073837;28;20500;-82
2022/12/27 10:56:11;;;;;;;31.30;12.73;;;;;;;11.12;74.11;95569.81;5074100;28;20458;-82
2022/12/27 10:58:41;;;;;;;21.13;14.70;;;;;;;11.18;74.10;95572.78;5074086;28;20801;-82
2022/12/27 11:01:16;;;;;;;24.60;15.70;;;;;;;11.24;74.00;95573.28;5074107;28;20863;-82
2022/12/27 11:03:43;;;;;;;16.43;14.60;;;;;;;11.33;73.27;95562.91;5073908;28;20972;-82
2022/12/27 11:06:19;;;;;;;26.67;16.50;;;;;;;11.42;73.59;95553.47;5073163;28;20530;-82
2022/12/27 11:08:46;;;;;;;21.90;15.90;;;;;;;11.49;73.43;95557.28;5073892;28;20451;-82
2022/12/27 11:11:18;;;;;;;24.23;14.83;;;;;;;11.60;72.59;95551.22;5074500;28;20852;-82
2022/12/27 11:13:45;;;;;;;17.67;13.20;;;;;;;11.66;72.33;95553.38;5073644;28;20452;-82
2022/12/27 11:16:19;;;;;;;21.47;17.23;;;;;;;11.73;71.24;95555.38;5074070;28;20429;-82
2022/12/27 11:18:50;;;;;;;50.63;27.10;;;;;;;11.64;73.95;95550.03;5073595;28;20501;-82
2022/12/27 11:21:17;;;;;;;33.03;22.70;;;;;;;11.41;75.66;95546.56;5073592;28;20451;-82
2022/12/27 11:23:49;;;;;;;30.87;21.53;;;;;;;11.12;77.21;95548.78;5073366;28;20533;-82
2022/12/27 11:26:23;;;;;;;34.30;22.53;;;;;;;11.15;78.09;95551.19;5073087;28;20475;-82
2022/12/27 11:28:53;;;;;;;30.80;21.47;;;;;;;11.19;77.20;95555.25;5055077;28;20451;-82
2022/12/27 11:31:32;;;;;;;33.03;21.90;;;;;;;11.09;77.36;95535.91;5073478;28;20451;-82
2022/12/27 11:34:02;;;;;;;25.50;19.03;;;;;;;11.12;77.84;95543.53;5073444;28;20442;-82
2022/12/27 11:36:32;;;;;;;25.37;17.90;;;;;;;11.20;78.74;95540.31;5073607;28;20580;-82
2022/12/27 11:39:00;;;;;;;34.43;18.93;;;;;;;11.34;78.75;95532.22;5074331;28;20501;-82
2022/12/27 11:41:38;;;;;;;27.07;19.27;;;;;;;11.47;78.73;95546.06;5074414;28;21024;-81
2022/12/27 11:44:16;;;;;;;30.93;18.20;;;;;;;11.58;77.92;95559.22;5073207;28;21035;-81
2022/12/27 11:46:46;;;;;;;25.13;16.27;;;;;;;11.67;76.50;95555.88;5073145;28;20492;-80
2022/12/27 11:49:20;;;;;;;21.70;16.10;;;;;;;11.66;76.72;95554.19;5072915;28;20855;-82
2022/12/27 11:52:09;;;;;;;34.23;16.77;;;;;;;11.92;75.83;95554.81;5073156;28;20854;-81
2022/12/27 11:55:12;;;;;;;24.80;16.13;;;;;;;12.09;73.81;95548.19;5073481;28;20502;-81
2022/12/27 11:58:02;;;;;;;25.27;17.03;;;;;;;12.32;73.49;95543.69;5073349;28;20447;-82
2022/12/27 12:00:37;;;;;;;24.10;17.60;;;;;;;12.50;73.79;95555.38;5073137;28;20490;-81
2022/12/27 12:03:35;;;;;;;24.97;17.90;;;;;;;12.70;72.30;95549.28;5072821;28;20517;-81
2022/12/27 12:06:13;;;;;;;24.80;18.23;;;;;;;12.83;71.65;95551.75;5072636;28;20449;-81
2022/12/27 12:09:00;;;;;;;35.40;19.77;;;;;;;12.92;71.96;95545.72;5072953;28;20449;-80
2022/12/27 12:11:43;;;;;;;29.37;21.30;;;;;;;12.98;71.45;95544.34;5072468;28;20448;-81
2022/12/27 12:14:34;;;;;;;32.23;19.80;;;;;;;12.98;71.01;95544.34;5074307;28;20454;-81
2022/12/27 12:17:15;;;;;;;35.00;19.10;;;;;;;12.95;71.02;95547.25;5038839;28;20497;-80
2022/12/27 12:20:04;;;;;;;32.83;20.27;;;;;;;12.97;70.76;95553.22;5036300;28;20488;-81
2022/12/27 12:22:55;;;;;;;33.70;19.30;;;;;;;12.94;71.58;95542.94;5035274;28;20454;-81
2022/12/27 12:26:00;;;;;;;30.40;21.10;;;;;;;12.89;71.00;95543.34;5037621;28;20569;-81
2022/12/27 12:29:03;;;;;;;36.17;20.87;;;;;;;12.85;70.98;95526.13;5036926;28;20512;-80
2022/12/27 12:31:50;;;;;;;36.80;21.37;;;;;;;12.82;71.01;95542.19;5038384;28;20482;-80
2022/12/27 12:34:38;;;;;;;30.23;21.40;;;;;;;12.78;71.61;95542.56;5037666;28;20446;-80
2022/12/27 12:37:19;;;;;;;44.83;19.30;;;;;;;12.73;71.80;95547.38;5037583;28;20443;-81
2022/12/27 12:40:13;;;;;;;29.43;20.20;;;;;;;12.71;72.46;95552.75;5037627;28;20949;-80
2022/12/27 12:42:49;;;;;;;36.87;19.60;;;;;;;12.66;73.04;95555.78;5036658;28;20439;-80
2022/12/27 12:45:46;;;;;;;30.30;20.57;;;;;;;12.63;72.51;95561.28;5037109;28;20486;-80
2022/12/27 12:48:34;;;;;;;31.70;21.33;;;;;;;12.61;72.50;95572.91;5034521;28;20445;-80
2022/12/27 12:51:15;;;;;;;35.03;22.03;;;;;;;12.59;72.58;95561.66;5034563;28;20438;-81
2022/12/27 12:53:56;;;;;;;44.13;30.37;;;;;;;12.62;72.51;95564.06;5045688;28;20510;-81
2022/12/27 12:56:49;;;;;;;33.30;22.63;;;;;;;12.64;72.56;95565.59;5055067;28;20500;-81
2022/12/27 12:59:33;;;;;;;40.03;21.13;;;;;;;12.63;72.01;95560.47;5072126;28;20452;-80
2022/12/27 13:02:25;;;;;;;29.40;19.90;;;;;;;12.60;71.94;95555.44;5072293;28;20502;-80
2022/12/27 13:05:08;;;;;;;26.10;18.10;;;;;;;12.59;72.24;95570.41;5072129;28;20480;-80
2022/12/27 13:07:51;;;;;;;28.30;20.33;;;;;;;12.69;71.82;95573.13;5036900;28;20494;-80
2022/12/27 13:10:45;;;;;;;41.47;22.67;;;;;;;12.73;71.88;95574.56;5072839;28;20997;-81
2022/12/27 13:13:19;;;;;;;34.70;21.93;;;;;;;12.78;72.18;95585.53;5072092;28;20852;-81
2022/12/27 13:15:58;;;;;;;35.23;22.80;;;;;;;12.83;72.25;95588.63;5071975;28;20440;-81
2022/12/27 13:18:33;;;;;;;31.47;22.30;;;;;;;12.91;71.83;95586.19;5072184;28;20844;-80
2022/12/27 13:21:13;;;;;;;34.53;22.03;;;;;;;12.97;71.90;95590.09;5071855;28;20444;-80
2022/12/27 13:23:56;;;;;;;33.33;22.00;;;;;;;13.02;71.11;95596.69;5072065;28;20506;-80
2022/12/27 13:26:32;;;;;;;34.23;24.17;;;;;;;13.01;71.23;95596.81;5071866;28;20449;-80
2022/12/27 13:29:25;;;;;;;27.63;20.53;;;;;;;13.03;71.87;95606.25;5071875;28;20942;-80
2022/12/27 13:32:01;;;;;;;30.47;21.83;;;;;;;13.05;72.80;95606.13;5075907;28;20844;-81